world map with BSG marked

BSG - Airport

This information may not be accurate or current and is not valid for navigation or flight planning. No warranty of fitness for any purpose is made or implied.

flag of Equatorial Guinea

Donate via PayPal

Additional information is available on the NEW Great Circle Mapper

Location
City:  Bata, Litoral, Equatorial Guinea
Name:Bata Airport
ICAO / IATA:FGBT / BSG

Details
Type:Airport (Aerodrome, Airfield)
Use:Public/Civil
Latitude:1°54'20"N (1.905469)
Longitude:9°48'20"E (9.805681)
Datum:WGS 1984
Elevation:13 ft (4 m)
Runways:1
Longest:7001 × 148 ft (2134 × 45 m)

Time
Timezone:UTC+1 (DST+3)
Local Time:

Weather
METAR:FGBT  041400Z 23007KT 200V260 9999 SCT010 FEW020CB 30/26 Q1008
TAF:FGBT  (expired)

Related Locations
Nearby:
Farthest:CIS: 12324 mi / 19833 km
Kanton Island (Canton Island, Abariringa Island) [Canton Island Airport], P, KI

Find:

   beyond  
but within

Other Information
Maps:
Sources:

  


 


Great Circle Mapper   Great Circle Mapper
Great Circle Mapper FAQ   Great Circle Mapper FAQ
  Karl's Home Page
KLSē   KLSē Home
   GC on Facebook
Airlines of the World   Airlines of the World
Donate via PayPal


Copyright © 2004-2019, Karl L. Swartz. All rights reserved.
All trademarks mentioned herein belong to their respective owners.

Please see credits for attribution and copyright information.

Karl Swartz <karl@kls2.com>
  Powered by FreeBSD
Valid HTML 4.01!
Labeled with ICRA
hCard Microformat
Geo Microformat